Time;durP1;ratioP1;P1;durP2;ratioP2;P2;SDS_P1;SDS_P2;PMS_P1;PMS_P2;Temp;Humidity;BMP_temperature;BMP_pressure;BME280_temperature;BME280_humidity;BME280_pressure;Samples;Min_cycle;Max_cycle;Signal;HPM_P1;HPM_P2
2021/08/03 04:01:22;;;;;;;3.00;2.90;;;13.00;99.90;;;;;;5517471;23;20272;-68
2021/08/03 04:03:51;;;;;;;2.15;2.13;;;13.00;99.90;;;;;;4933756;29;20213;-68
2021/08/03 04:06:18;;;;;;;2.10;2.10;;;13.10;99.90;;;;;;4928371;29;20702;-69
2021/08/03 04:08:45;;;;;;;2.65;2.55;;;13.10;99.90;;;;;;4932509;29;20229;-68
2021/08/03 04:11:14;;;;;;;2.58;2.00;;;13.20;99.90;;;;;;4932661;29;20238;-68
2021/08/03 04:13:41;;;;;;;2.30;2.20;;;13.20;99.90;;;;;;4923588;29;20211;-68
2021/08/03 04:16:08;;;;;;;3.43;2.10;;;13.20;99.90;;;;;;4929389;29;20789;-69
2021/08/03 04:18:36;;;;;;;2.53;2.25;;;13.30;99.90;;;;;;4933410;29;20544;-68
2021/08/03 04:21:03;;;;;;;2.00;2.00;;;13.30;99.90;;;;;;4932685;29;20284;-69
2021/08/03 04:23:30;;;;;;;2.50;2.33;;;13.40;99.90;;;;;;4918767;29;20482;-68
2021/08/03 04:25:56;;;;;;;2.93;2.73;;;13.40;99.90;;;;;;4914963;29;20529;-68
2021/08/03 04:28:23;;;;;;;2.47;2.37;;;13.50;99.90;;;;;;4920412;29;20932;-68
2021/08/03 04:30:50;;;;;;;2.40;2.37;;;13.50;99.90;;;;;;4925473;29;20493;-68
2021/08/03 04:33:17;;;;;;;1.90;1.90;;;13.50;99.90;;;;;;4925404;29;20494;-68
2021/08/03 04:35:45;;;;;;;2.70;2.50;;;13.60;99.90;;;;;;4923234;29;20529;-68
2021/08/03 04:38:11;;;;;;;2.70;2.50;;;13.60;99.90;;;;;;4931334;29;20473;-67
2021/08/03 04:40:38;;;;;;;2.60;2.50;;;13.60;99.90;;;;;;4924185;29;20530;-68
2021/08/03 04:43:05;;;;;;;2.83;2.63;;;13.70;99.90;;;;;;4921063;29;20558;-68
2021/08/03 04:45:31;;;;;;;2.60;2.47;;;13.70;99.90;;;;;;4930270;29;20986;-68
2021/08/03 04:47:58;;;;;;;2.10;2.10;;;13.90;99.90;;;;;;4926038;29;20897;-69
2021/08/03 04:50:26;;;;;;;2.50;2.40;;;13.90;99.90;;;;;;4932575;29;20476;-68
2021/08/03 04:52:56;;;;;;;1.93;1.83;;;14.00;99.90;;;;;;4930877;29;20478;-68
2021/08/03 04:55:23;;;;;;;2.43;2.23;;;14.10;99.90;;;;;;4923633;29;21056;-68
2021/08/03 04:57:50;;;;;;;2.30;2.20;;;14.10;99.90;;;;;;4932933;29;20458;-68
2021/08/03 05:00:18;;;;;;;2.30;2.20;;;14.20;99.90;;;;;;4920817;29;20469;-69
2021/08/03 05:02:45;;;;;;;2.67;2.43;;;14.30;99.90;;;;;;4924439;29;20470;-68
2021/08/03 05:05:12;;;;;;;2.00;2.00;;;14.50;99.90;;;;;;4917874;29;20474;-72
2021/08/03 05:07:39;;;;;;;2.93;2.10;;;15.10;99.90;;;;;;4919686;29;20494;-70
2021/08/03 05:10:10;;;;;;;2.40;1.87;;;15.80;99.90;;;;;;4930933;29;20470;-71
2021/08/03 05:12:37;;;;;;;2.00;1.97;;;16.40;99.90;;;;;;4920739;29;20505;-71
2021/08/03 05:15:05;;;;;;;1.80;1.70;;;16.70;99.90;;;;;;4919951;29;20485;-71
2021/08/03 05:17:32;;;;;;;1.90;1.90;;;16.60;99.90;;;;;;4932748;29;20950;-72
2021/08/03 05:19:59;;;;;;;1.80;1.70;;;16.50;99.90;;;;;;4930898;29;20530;-71
2021/08/03 05:22:27;;;;;;;3.40;1.67;;;16.40;99.90;;;;;;4917141;29;20513;-72
2021/08/03 05:24:55;;;;;;;2.33;2.23;;;16.30;99.90;;;;;;4933824;29;20471;-72
2021/08/03 05:27:23;;;;;;;2.80;2.53;;;16.30;99.90;;;;;;4927271;29;20512;-71
2021/08/03 05:29:49;;;;;;;2.87;2.77;;;16.20;99.90;;;;;;4930828;29;20473;-72
2021/08/03 05:32:16;;;;;;;1.67;1.60;;;16.20;99.90;;;;;;4924338;29;20547;-71
2021/08/03 05:34:43;;;;;;;2.50;2.40;;;16.20;99.90;;;;;;4924293;29;20470;-71
2021/08/03 05:37:09;;;;;;;1.77;1.67;;;16.20;99.90;;;;;;4927654;29;20478;-72
2021/08/03 05:39:36;;;;;;;2.10;1.70;;;16.20;99.90;;;;;;4922454;29;20522;-70
2021/08/03 05:42:04;;;;;;;1.60;1.60;;;16.30;99.90;;;;;;4930858;29;20891;-71
2021/08/03 05:44:32;;;;;;;1.60;1.60;;;16.40;99.90;;;;;;4919071;29;20514;-69
2021/08/03 05:46:59;;;;;;;1.60;1.50;;;16.40;99.90;;;;;;4924396;29;20529;-69
2021/08/03 05:49:26;;;;;;;1.97;1.87;;;16.60;99.90;;;;;;4935136;29;20560;-69
2021/08/03 05:51:53;;;;;;;2.30;2.20;;;16.70;99.90;;;;;;4923917;29;20577;-69
2021/08/03 05:54:20;;;;;;;1.87;1.77;;;16.70;99.90;;;;;;4926992;29;20468;-69
2021/08/03 05:56:46;;;;;;;1.90;1.90;;;16.80;99.90;;;;;;4930676;29;20534;-69
2021/08/03 05:59:13;;;;;;;2.60;2.40;;;16.80;99.90;;;;;;4921352;29;20530;-69
2021/08/03 06:01:41;;;;;;;1.93;1.90;;;16.80;99.90;;;;;;4916918;29;20498;-71
2021/08/03 06:04:08;;;;;;;1.70;1.70;;;16.90;99.90;;;;;;4915647;29;20467;-70
2021/08/03 06:06:39;;;;;;;2.10;2.00;;;16.90;99.90;;;;;;4915771;29;20526;-70
2021/08/03 06:09:08;;;;;;;2.07;1.87;;;17.00;99.90;;;;;;4919533;29;20498;-69
2021/08/03 06:11:37;;;;;;;2.17;1.90;;;17.10;99.90;;;;;;4924358;29;20497;-70
2021/08/03 06:14:06;;;;;;;2.20;2.13;;;17.60;99.90;;;;;;4915823;29;20474;-70
2021/08/03 06:16:32;;;;;;;1.90;1.83;;;18.40;99.90;;;;;;4933609;29;20473;-70
2021/08/03 06:19:04;;;;;;;2.17;2.07;;;19.20;99.90;;;;;;4935393;29;20969;-70
2021/08/03 06:21:32;;;;;;;2.80;2.43;;;20.00;99.90;;;;;;4929483;29;20501;-70
2021/08/03 06:23:59;;;;;;;2.00;1.90;;;20.20;99.90;;;;;;4915762;29;20621;-70
2021/08/03 06:26:26;;;;;;;2.33;2.13;;;20.50;99.90;;;;;;4928712;29;20466;-71
2021/08/03 06:28:54;;;;;;;2.37;2.27;;;20.20;99.90;;;;;;4916525;29;20545;-70
2021/08/03 06:31:21;;;;;;;1.73;1.63;;;19.60;99.90;;;;;;4929283;29;20810;-72
2021/08/03 06:33:48;;;;;;;2.73;2.33;;;19.30;99.90;;;;;;4917829;29;21058;-70
2021/08/03 06:36:16;;;;;;;2.43;2.30;;;19.00;99.90;;;;;;4925728;29;20580;-70
2021/08/03 06:38:43;;;;;;;2.53;2.43;;;19.60;99.90;;;;;;4925926;29;20474;-70
2021/08/03 06:41:15;;;;;;;2.50;2.40;;;20.20;99.90;;;;;;4929644;29;20490;-71
2021/08/03 06:43:51;;;;;;;3.27;3.07;;;20.10;99.90;;;;;;4920320;29;20470;-70
2021/08/03 06:46:18;;;;;;;2.60;2.43;;;20.00;99.90;;;;;;4928802;29;20483;-70
2021/08/03 06:48:49;;;;;;;3.03;2.83;;;20.20;99.90;;;;;;4931460;29;20493;-70
2021/08/03 06:51:18;;;;;;;4.70;3.40;;;20.30;99.90;;;;;;4919636;29;20978;-70
2021/08/03 06:53:46;;;;;;;3.30;3.10;;;20.20;99.90;;;;;;4933737;29;20482;-71
2021/08/03 06:56:20;;;;;;;4.03;3.90;;;20.00;99.90;;;;;;4931987;29;20483;-70
2021/08/03 06:58:52;;;;;;;4.07;3.87;;;19.70;99.90;;;;;;4929485;29;20517;-70
2021/08/03 07:01:24;;;;;;;3.83;3.63;;;19.50;99.90;;;;;;4926212;29;20494;-69
2021/08/03 07:03:56;;;;;;;4.23;3.73;;;19.10;99.90;;;;;;4915066;29;20533;-69
2021/08/03 07:06:25;;;;;;;5.37;4.97;;;19.00;99.90;;;;;;4915168;29;20918;-69
2021/08/03 07:08:52;;;;;;;3.70;3.60;;;18.80;99.90;;;;;;4920581;29;20494;-69
2021/08/03 07:11:20;;;;;;;4.40;4.00;;;18.90;99.90;;;;;;4930220;29;20514;-69
2021/08/03 07:13:49;;;;;;;4.43;4.13;;;19.00;99.90;;;;;;4919720;29;20521;-69
2021/08/03 07:16:16;;;;;;;3.83;3.63;;;19.40;99.90;;;;;;4921165;29;20540;-70
2021/08/03 07:18:43;;;;;;;3.63;3.40;;;19.70;99.90;;;;;;4918611;29;20471;-70
2021/08/03 07:21:12;;;;;;;3.20;3.10;;;20.00;99.90;;;;;;4915898;29;20490;-69
2021/08/03 07:23:44;;;;;;;3.77;3.57;;;20.10;99.90;;;;;;4930671;29;20462;-69
2021/08/03 07:26:11;;;;;;;2.80;2.70;;;20.50;99.90;;;;;;4932537;29;20476;-69
2021/08/03 07:28:37;;;;;;;5.47;3.50;;;21.20;99.90;;;;;;4919255;29;20483;-70
2021/08/03 07:31:04;;;;;;;3.20;2.90;;;21.70;99.90;;;;;;4916210;29;20486;-71
2021/08/03 07:33:31;;;;;;;2.77;2.67;;;22.20;99.90;;;;;;4932439;29;20463;-69
2021/08/03 07:35:57;;;;;;;2.63;2.63;;;23.10;99.90;;;;;;4930850;29;20533;-69
2021/08/03 07:38:24;;;;;;;2.30;2.30;;;23.60;99.90;;;;;;4915460;29;20619;-69
2021/08/03 07:40:52;;;;;;;2.37;2.37;;;23.90;99.90;;;;;;4915666;29;20493;-69
2021/08/03 07:43:19;;;;;;;1.87;1.77;;;23.60;99.90;;;;;;4914886;29;20475;-70
2021/08/03 07:45:45;;;;;;;2.30;2.20;;;23.50;99.90;;;;;;4915750;29;20948;-69
2021/08/03 07:48:13;;;;;;;2.40;2.30;;;23.40;99.90;;;;;;4914754;29;20487;-69
2021/08/03 07:50:40;;;;;;;1.83;1.83;;;23.20;99.90;;;;;;4915341;29;20483;-69
2021/08/03 07:53:07;;;;;;;1.70;1.70;;;22.70;99.90;;;;;;4915476;29;20982;-69
2021/08/03 07:55:34;;;;;;;1.93;1.93;;;22.60;99.90;;;;;;4915496;29;20584;-69
2021/08/03 07:58:02;;;;;;;1.53;1.53;;;22.30;99.90;;;;;;4915017;29;20876;-70
2021/08/03 08:00:28;;;;;;;1.90;1.80;;;22.30;99.90;;;;;;4915116;29;20506;-68
2021/08/03 08:02:56;;;;;;;2.00;1.63;;;22.20;99.90;;;;;;4915734;29;20558;-69
2021/08/03 08:05:23;;;;;;;1.90;1.90;;;22.30;99.90;;;;;;4919040;29;20525;-69
2021/08/03 08:07:51;;;;;;;1.70;1.60;;;22.50;99.90;;;;;;4918962;29;20986;-68
2021/08/03 08:10:19;;;;;;;1.93;1.87;;;22.50;99.90;;;;;;4917935;29;21016;-69
2021/08/03 08:12:46;;;;;;;1.60;1.60;;;22.80;99.90;;;;;;4919072;29;20479;-68
2021/08/03 08:15:14;;;;;;;1.37;1.37;;;22.90;99.90;;;;;;4918644;29;20467;-71
2021/08/03 08:17:40;;;;;;;1.90;1.40;;;23.10;99.90;;;;;;4919521;29;20477;-72
2021/08/03 08:20:12;;;;;;;1.60;1.60;;;22.90;99.90;;;;;;4918587;29;20828;-71
2021/08/03 08:22:39;;;;;;;1.50;1.50;;;22.40;99.90;;;;;;4918292;29;20887;-71
2021/08/03 08:25:10;;;;;;;1.50;1.47;;;22.20;99.90;;;;;;4926262;29;20464;-71
2021/08/03 08:27:37;;;;;;;2.10;2.10;;;22.20;99.90;;;;;;4921304;29;20580;-71
2021/08/03 08:30:04;;;;;;;1.50;1.30;;;22.00;99.90;;;;;;4925997;29;20490;-72
2021/08/03 08:32:32;;;;;;;1.57;1.50;;;21.90;99.90;;;;;;4918557;29;20486;-72
2021/08/03 08:34:59;;;;;;;1.73;1.70;;;21.80;99.90;;;;;;4921109;29;20512;-72
2021/08/03 08:37:26;;;;;;;1.60;1.50;;;21.60;99.90;;;;;;4922275;29;20481;-67
2021/08/03 08:39:52;;;;;;;1.50;1.40;;;21.60;99.90;;;;;;4917798;29;20517;-67
2021/08/03 08:42:19;;;;;;;2.30;1.57;;;21.40;99.90;;;;;;4923216;29;20599;-67
2021/08/03 08:44:49;;;;;;;1.50;1.40;;;21.30;99.90;;;;;;4927695;29;20478;-69
2021/08/03 08:47:16;;;;;;;1.47;1.40;;;21.20;99.90;;;;;;4925259;29;20536;-67
2021/08/03 08:49:46;;;;;;;1.53;1.53;;;21.20;99.90;;;;;;4929239;29;20528;-72
2021/08/03 08:52:14;;;;;;;2.20;1.90;;;21.20;99.90;;;;;;4918488;29;20494;-72
2021/08/03 08:54:41;;;;;;;1.20;1.20;;;21.20;99.90;;;;;;4928402;29;20470;-73
2021/08/03 08:57:08;;;;;;;1.10;1.10;;;21.10;99.90;;;;;;4934071;29;20514;-73
2021/08/03 08:59:35;;;;;;;1.73;1.67;;;21.20;99.90;;;;;;4918578;29;20495;-72
2021/08/03 09:02:02;;;;;;;1.50;1.43;;;21.40;99.90;;;;;;4920604;29;20497;-71
2021/08/03 09:04:29;;;;;;;1.33;1.30;;;21.50;99.90;;;;;;4918210;29;20471;-70
2021/08/03 09:07:06;;;;;;;1.27;1.27;;;21.50;99.90;;;;;;4917918;29;20861;-70
2021/08/03 09:09:41;;;;;;;1.30;1.20;;;21.60;99.90;;;;;;4917978;29;20995;-71
2021/08/03 09:12:08;;;;;;;5.20;1.50;;;21.50;99.90;;;;;;4918656;29;20522;-70
2021/08/03 09:14:37;;;;;;;1.47;1.37;;;21.70;99.90;;;;;;4917848;29;20829;-71
2021/08/03 09:17:04;;;;;;;1.10;1.03;;;21.80;99.90;;;;;;4917723;29;20478;-71
2021/08/03 09:19:33;;;;;;;1.07;1.00;;;21.90;99.90;;;;;;4929565;29;20500;-72
2021/08/03 09:22:16;;;;;;;1.10;1.10;;;21.90;99.90;;;;;;4922508;29;20494;-71
2021/08/03 09:24:45;;;;;;;0.97;0.97;;;22.10;99.90;;;;;;4929971;29;20616;-72
2021/08/03 09:27:31;;;;;;;1.00;1.00;;;22.30;99.90;;;;;;4923268;29;20530;-70
2021/08/03 09:29:58;;;;;;;1.17;1.10;;;22.10;99.90;;;;;;4925843;29;20490;-70
2021/08/03 09:32:29;;;;;;;1.00;1.00;;;22.10;99.90;;;;;;4920003;29;20537;-71
2021/08/03 09:35:05;;;;;;;1.00;1.00;;;21.70;99.90;;;;;;4919772;29;20569;-71
2021/08/03 09:37:34;;;;;;;1.10;1.10;;;21.30;99.90;;;;;;4929254;29;20541;-71
2021/08/03 09:40:01;;;;;;;0.93;0.90;;;21.20;99.90;;;;;;4916608;29;20474;-68
2021/08/03 09:42:28;;;;;;;1.17;1.17;;;21.30;99.90;;;;;;4917504;29;20482;-68
2021/08/03 09:44:56;;;;;;;0.93;0.93;;;21.40;99.90;;;;;;4919775;29;20466;-70
2021/08/03 09:47:25;;;;;;;0.90;0.90;;;21.60;99.90;;;;;;4925480;29;20495;-68
2021/08/03 09:49:54;;;;;;;1.00;1.00;;;21.60;99.90;;;;;;4920224;29;20482;-70
2021/08/03 09:52:22;;;;;;;0.80;0.80;;;21.70;99.90;;;;;;4926611;29;20498;-69
2021/08/03 09:54:51;;;;;;;1.33;1.20;;;21.80;99.90;;;;;;4920363;29;20517;-70
2021/08/03 09:57:23;;;;;;;1.40;1.40;;;21.90;99.90;;;;;;4931229;29;20491;-68
2021/08/03 09:59:51;;;;;;;0.63;0.63;;;22.10;99.90;;;;;;4934218;29;20981;-68
2021/08/03 10:02:19;;;;;;;0.97;0.97;;;22.10;99.90;;;;;;4916830;29;20569;-68
2021/08/03 10:04:46;;;;;;;1.07;1.07;;;22.10;99.90;;;;;;4917174;29;20477;-69
2021/08/03 10:07:14;;;;;;;0.80;0.80;;;22.20;99.90;;;;;;4917417;29;20894;-69
2021/08/03 10:09:42;;;;;;;0.90;0.90;;;22.30;99.90;;;;;;4917295;29;20866;-72
2021/08/03 10:12:11;;;;;;;0.73;0.73;;;22.30;99.90;;;;;;4916194;29;20486;-72
2021/08/03 10:14:38;;;;;;;1.30;1.20;;;22.30;99.90;;;;;;4922976;29;20525;-72
2021/08/03 10:17:05;;;;;;;1.00;1.00;;;22.10;99.90;;;;;;4918337;29;20804;-70
2021/08/03 10:19:36;;;;;;;1.00;1.00;;;21.90;99.90;;;;;;4919276;29;20550;-70
2021/08/03 10:22:07;;;;;;;0.70;0.70;;;21.90;99.90;;;;;;4916509;29;20561;-70
2021/08/03 10:24:36;;;;;;;0.93;0.93;;;21.80;99.90;;;;;;4916833;29;20471;-71
2021/08/03 10:27:07;;;;;;;0.87;0.87;;;21.70;99.90;;;;;;4916307;29;20467;-71
2021/08/03 10:29:40;;;;;;;0.90;0.90;;;21.60;99.90;;;;;;4915960;29;21052;-70
2021/08/03 10:32:07;;;;;;;1.00;1.00;;;21.60;99.90;;;;;;4916076;29;20478;-69
2021/08/03 10:35:02;;;;;;;0.80;0.80;;;21.60;99.90;;;;;;4918005;29;20529;-70
2021/08/03 10:38:05;;;;;;;3.60;0.97;;;21.60;99.90;;;;;;4929152;29;20489;-70
2021/08/03 10:41:01;;;;;;;1.00;1.00;;;21.60;99.90;;;;;;4919805;29;20485;-70
2021/08/03 10:43:48;;;;;;;1.03;0.83;;;21.50;99.90;;;;;;4915717;29;20518;-70
2021/08/03 10:46:38;;;;;;;1.20;1.20;;;21.40;99.90;;;;;;4916650;29;20803;-70
2021/08/03 10:49:06;;;;;;;1.10;1.10;;;21.40;99.90;;;;;;4935437;29;20461;-68
2021/08/03 10:51:48;;;;;;;1.27;0.90;;;21.30;99.90;;;;;;4918691;29;20506;-70
2021/08/03 10:54:18;;;;;;;0.90;0.90;;;21.20;99.90;;;;;;4927314;29;20468;-68
2021/08/03 10:57:12;;;;;;;1.10;1.10;;;21.10;99.90;;;;;;4917537;29;20522;-71
2021/08/03 10:59:39;;;;;;;1.40;1.30;;;21.00;99.90;;;;;;4909891;29;20553;-71
2021/08/03 11:02:09;;;;;;;1.30;1.20;;;20.90;99.90;;;;;;4915220;29;20909;-70
2021/08/03 11:05:06;;;;;;;1.07;1.07;;;20.80;99.90;;;;;;4916569;29;20581;-70
2021/08/03 11:07:36;;;;;;;1.10;1.10;;;20.70;99.90;;;;;;4839526;29;20462;-70
2021/08/03 11:10:25;;;;;;;1.20;1.20;;;20.60;99.90;;;;;;4899732;29;20493;-70
2021/08/03 11:12:53;;;;;;;1.30;1.30;;;20.60;99.90;;;;;;4915657;29;20487;-70
2021/08/03 11:15:42;;;;;;;1.43;1.30;;;20.70;99.90;;;;;;4919318;29;20836;-70
2021/08/03 11:18:14;;;;;;;1.00;1.00;;;20.70;99.90;;;;;;4935082;29;20557;-70
2021/08/03 11:21:15;;;;;;;1.13;1.13;;;20.90;99.90;;;;;;4928452;29;20498;-70
2021/08/03 11:24:03;;;;;;;1.60;1.60;;;20.80;99.90;;;;;;4915602;29;20954;-70
2021/08/03 11:26:33;;;;;;;1.47;1.47;;;20.90;99.90;;;;;;4916104;29;20470;-68
2021/08/03 11:29:03;;;;;;;1.20;1.20;;;20.90;99.90;;;;;;4932186;29;20961;-68
2021/08/03 11:31:54;;;;;;;1.43;1.10;;;20.90;99.90;;;;;;4923373;29;21054;-68
2021/08/03 11:34:29;;;;;;;1.10;1.10;;;20.90;99.90;;;;;;4916026;29;20572;-69
2021/08/03 11:37:10;;;;;;;6.37;1.37;;;21.00;99.90;;;;;;4918708;29;20478;-68
2021/08/03 11:39:41;;;;;;;1.23;1.20;;;21.10;99.90;;;;;;4919944;29;20871;-68
2021/08/03 11:42:09;;;;;;;1.10;1.10;;;21.30;99.90;;;;;;4921016;29;22115;-68
2021/08/03 11:44:36;;;;;;;0.97;0.97;;;21.40;99.90;;;;;;4931516;29;20484;-69
2021/08/03 11:47:05;;;;;;;1.53;1.20;;;21.50;99.90;;;;;;4938414;29;20466;-72
2021/08/03 11:49:37;;;;;;;0.77;0.77;;;21.60;99.90;;;;;;4927722;29;20605;-72
2021/08/03 11:52:25;;;;;;;1.27;1.17;;;21.50;99.90;;;;;;4920991;29;20490;-72
2021/08/03 11:54:56;;;;;;;1.20;1.10;;;21.30;99.90;;;;;;4924676;29;20469;-71
2021/08/03 11:57:39;;;;;;;1.23;0.90;;;21.20;99.90;;;;;;4919228;29;20907;-71
2021/08/03 12:00:15;;;;;;;1.10;1.00;;;21.30;99.90;;;;;;4919089;29;20481;-72
2021/08/03 12:02:43;;;;;;;0.73;0.73;;;21.40;99.90;;;;;;4919487;29;20821;-72
2021/08/03 12:05:20;;;;;;;1.27;1.13;;;21.50;99.90;;;;;;4919230;29;20471;-72
2021/08/03 12:07:50;;;;;;;1.13;1.13;;;21.60;99.90;;;;;;4919367;29;20513;-71
2021/08/03 12:10:17;;;;;;;1.63;1.53;;;21.80;99.90;;;;;;4918520;29;20490;-72
2021/08/03 12:12:46;;;;;;;1.60;1.53;;;22.00;99.90;;;;;;4924561;29;20541;-73
2021/08/03 12:15:15;;;;;;;0.80;0.80;;;22.10;99.90;;;;;;4918955;29;20470;-72
2021/08/03 12:17:42;;;;;;;1.30;1.17;;;22.00;99.90;;;;;;4919085;29;20458;-73
2021/08/03 12:20:46;;;;;;;1.30;1.20;;;22.00;99.90;;;;;;4919141;29;20478;-71
2021/08/03 12:23:21;;;;;;;1.00;1.00;;;22.10;99.90;;;;;;4878705;29;20934;-66
2021/08/03 12:25:50;;;;;;;1.13;1.03;;;22.00;99.90;;;;;;4918133;29;20465;-66
2021/08/03 12:28:32;;;;;;;1.93;1.03;;;22.00;99.90;;;;;;4923746;29;20461;-71
2021/08/03 12:31:14;;;;;;;1.03;1.03;;;21.90;99.90;;;;;;4933616;29;21014;-71
2021/08/03 12:33:41;;;;;;;0.83;0.83;;;22.00;99.90;;;;;;4918594;29;20458;-72
2021/08/03 12:36:12;;;;;;;0.90;0.90;;;22.00;99.90;;;;;;4923098;29;20469;-71
2021/08/03 12:38:40;;;;;;;1.30;0.93;;;22.00;99.90;;;;;;4927932;29;20470;-72
2021/08/03 12:41:18;;;;;;;1.10;1.10;;;22.10;99.90;;;;;;4917799;29;20580;-71
2021/08/03 12:43:45;;;;;;;1.23;1.23;;;22.20;99.90;;;;;;4924767;29;20458;-69
2021/08/03 12:46:12;;;;;;;1.33;1.30;;;22.40;99.90;;;;;;4923332;29;20474;-69
2021/08/03 12:48:49;;;;;;;1.20;1.10;;;22.60;99.90;;;;;;4918241;29;20823;-69
2021/08/03 12:51:25;;;;;;;1.33;1.23;;;22.70;99.90;;;;;;4932860;29;20489;-68
2021/08/03 12:53:52;;;;;;;1.07;1.07;;;22.80;99.90;;;;;;4919906;29;20529;-69
2021/08/03 12:56:28;;;;;;;1.10;0.70;;;22.80;99.90;;;;;;4917714;29;20923;-69
2021/08/03 12:58:55;;;;;;;0.80;0.80;;;22.80;99.90;;;;;;4917678;29;20482;-69
2021/08/03 13:01:23;;;;;;;0.90;0.90;;;22.90;99.90;;;;;;4918279;29;20500;-69
2021/08/03 13:03:52;;;;;;;1.20;1.20;;;23.10;99.90;;;;;;4917819;29;20485;-70
2021/08/03 13:06:20;;;;;;;1.20;1.20;;;23.30;99.90;;;;;;4917883;29;21091;-70
2021/08/03 13:08:48;;;;;;;1.50;1.03;;;23.40;99.90;;;;;;4918119;29;20470;-70
2021/08/03 13:11:16;;;;;;;0.90;0.90;;;23.40;99.90;;;;;;4916884;29;20490;-70
2021/08/03 13:13:43;;;;;;;0.60;0.60;;;23.40;99.90;;;;;;4917236;29;20509;-70
2021/08/03 13:16:10;;;;;;;0.83;0.83;;;23.50;99.90;;;;;;4935777;29;20954;-70
2021/08/03 13:18:38;;;;;;;1.10;1.10;;;23.70;99.90;;;;;;4926337;29;20466;-70
2021/08/03 13:21:06;;;;;;;1.20;1.20;;;23.80;99.90;;;;;;4923242;29;20521;-69
2021/08/03 13:23:33;;;;;;;1.03;1.03;;;23.80;99.90;;;;;;4920674;29;20893;-69
2021/08/03 13:26:01;;;;;;;1.17;1.17;;;23.80;99.90;;;;;;4935043;29;20536;-69
2021/08/03 13:28:28;;;;;;;0.70;0.70;;;23.80;99.90;;;;;;4920888;29;20481;-69
2021/08/03 13:30:54;;;;;;;0.90;0.90;;;23.80;99.90;;;;;;4923257;29;20491;-70
2021/08/03 13:33:21;;;;;;;1.00;1.00;;;23.90;99.90;;;;;;4922564;29;20824;-70
2021/08/03 13:35:48;;;;;;;1.00;1.00;;;24.00;99.90;;;;;;4921398;29;20518;-70
2021/08/03 13:38:14;;;;;;;1.60;1.27;;;23.90;99.90;;;;;;4917402;29;20482;-69
2021/08/03 13:40:42;;;;;;;0.87;0.87;;;23.90;99.90;;;;;;4920639;29;20474;-69
2021/08/03 13:43:10;;;;;;;1.60;1.07;;;23.80;99.90;;;;;;4917350;29;20576;-70
2021/08/03 13:45:36;;;;;;;0.93;0.93;;;23.70;99.90;;;;;;4918015;29;20538;-69
2021/08/03 13:48:06;;;;;;;1.47;1.13;;;23.60;99.90;;;;;;4917429;29;20526;-69
2021/08/03 13:50:32;;;;;;;1.10;1.10;;;23.40;99.90;;;;;;4926249;29;21027;-69
2021/08/03 13:52:59;;;;;;;1.00;1.00;;;23.40;99.90;;;;;;4925934;29;20550;-69
2021/08/03 13:55:26;;;;;;;1.37;1.27;;;23.30;99.90;;;;;;4920087;29;20474;-69
2021/08/03 13:57:52;;;;;;;1.90;1.30;;;23.40;99.90;;;;;;4917598;29;20469;-69
2021/08/03 14:00:20;;;;;;;1.17;1.17;;;23.50;99.90;;;;;;4919294;29;20875;-69
2021/08/03 14:02:47;;;;;;;1.70;1.07;;;23.40;99.90;;;;;;4917148;29;20467;-69
2021/08/03 14:05:14;;;;;;;1.07;1.07;;;23.60;99.90;;;;;;4931156;29;20472;-69
2021/08/03 14:07:40;;;;;;;0.90;0.90;;;23.60;99.90;;;;;;4929319;29;20934;-69
2021/08/03 14:10:08;;;;;;;1.57;1.47;;;23.70;99.90;;;;;;4929326;29;20558;-69
2021/08/03 14:12:35;;;;;;;1.00;1.00;;;23.60;99.90;;;;;;4918467;29;20522;-69
2021/08/03 14:15:02;;;;;;;1.00;1.00;;;23.60;99.90;;;;;;4918317;29;20466;-69
2021/08/03 14:17:30;;;;;;;1.00;1.00;;;23.70;99.90;;;;;;4918694;29;20466;-69
2021/08/03 14:19:56;;;;;;;0.70;0.70;;;23.60;99.90;;;;;;4916655;29;20466;-69
2021/08/03 14:22:23;;;;;;;1.10;1.10;;;23.50;99.90;;;;;;4916283;29;20591;-69
2021/08/03 14:24:50;;;;;;;1.20;1.20;;;23.40;99.90;;;;;;4924131;29;20517;-69
2021/08/03 14:27:17;;;;;;;1.10;1.10;;;23.50;99.90;;;;;;4925437;29;20490;-69
2021/08/03 14:29:45;;;;;;;1.30;1.30;;;23.50;99.90;;;;;;4919787;29;20468;-69
2021/08/03 14:32:12;;;;;;;1.03;1.03;;;23.50;99.90;;;;;;4923812;29;20576;-69
2021/08/03 14:34:40;;;;;;;1.00;1.00;;;23.50;99.90;;;;;;4934628;29;20513;-69
2021/08/03 14:37:06;;;;;;;1.10;1.10;;;23.60;99.90;;;;;;4926182;29;20479;-69
2021/08/03 14:39:33;;;;;;;1.23;1.23;;;23.60;99.90;;;;;;4916678;29;20463;-69
2021/08/03 14:42:00;;;;;;;1.00;1.00;;;23.60;99.90;;;;;;4926642;29;21076;-69
2021/08/03 14:44:27;;;;;;;1.30;1.30;;;23.70;99.90;;;;;;4917078;29;20471;-69
2021/08/03 14:46:53;;;;;;;0.93;0.93;;;23.70;99.90;;;;;;4922494;29;20474;-69
2021/08/03 14:49:20;;;;;;;1.40;1.30;;;23.70;99.90;;;;;;4935979;29;20478;-69
2021/08/03 14:51:48;;;;;;;1.30;1.20;;;23.60;99.90;;;;;;4921791;29;20486;-70
2021/08/03 14:54:17;;;;;;;1.00;1.00;;;23.50;99.90;;;;;;4936195;29;20495;-70
2021/08/03 14:56:45;;;;;;;1.17;1.17;;;23.40;99.90;;;;;;4924768;29;20467;-70
2021/08/03 14:59:12;;;;;;;1.43;1.43;;;23.40;99.90;;;;;;4916249;29;20863;-70
2021/08/03 15:01:40;;;;;;;0.90;0.90;;;23.30;99.90;;;;;;4915564;29;21002;-70
2021/08/03 15:04:06;;;;;;;1.30;1.30;;;23.10;99.90;;;;;;4917840;29;20565;-70
2021/08/03 15:06:33;;;;;;;1.40;1.40;;;23.10;99.90;;;;;;4917361;29;20466;-70
2021/08/03 15:09:01;;;;;;;1.37;1.37;;;23.10;99.90;;;;;;4931377;29;20473;-70
2021/08/03 15:11:28;;;;;;;1.33;1.33;;;23.00;99.90;;;;;;4920660;29;20792;-70
2021/08/03 15:13:54;;;;;;;1.27;1.20;;;22.90;99.90;;;;;;4915143;29;20861;-70
2021/08/03 15:16:21;;;;;;;1.10;1.10;;;22.80;99.90;;;;;;4915552;29;20471;-70
2021/08/03 15:18:48;;;;;;;1.50;1.43;;;22.80;99.90;;;;;;4915773;29;20466;-70
2021/08/03 15:21:14;;;;;;;1.03;1.03;;;22.70;99.90;;;;;;4918980;29;20533;-69
2021/08/03 15:23:41;;;;;;;1.37;1.37;;;22.50;99.90;;;;;;4915214;29;20491;-69
2021/08/03 15:26:10;;;;;;;0.90;0.90;;;22.50;99.90;;;;;;4926182;29;20474;-69
2021/08/03 15:28:36;;;;;;;1.30;1.30;;;22.40;99.90;;;;;;4930724;29;20537;-69
2021/08/03 15:31:03;;;;;;;1.03;1.03;;;22.40;99.90;;;;;;4917474;29;20490;-69
2021/08/03 15:33:31;;;;;;;1.30;1.30;;;22.30;99.90;;;;;;4919399;29;20604;-68
2021/08/03 15:35:58;;;;;;;1.33;1.33;;;22.30;99.90;;;;;;4915376;29;20459;-69
2021/08/03 15:38:25;;;;;;;2.57;1.33;;;22.20;99.90;;;;;;4933813;29;20458;-69
2021/08/03 15:40:52;;;;;;;1.33;1.33;;;22.20;99.90;;;;;;4914739;29;20549;-68
2021/08/03 15:43:20;;;;;;;1.30;1.27;;;22.10;99.90;;;;;;4914333;29;20585;-68
2021/08/03 15:45:47;;;;;;;1.40;1.40;;;22.10;99.90;;;;;;4914423;29;20474;-68
2021/08/03 15:48:13;;;;;;;1.63;1.47;;;22.10;99.90;;;;;;4915390;29;20471;-68
2021/08/03 15:50:40;;;;;;;1.10;1.00;;;22.00;99.90;;;;;;4925163;29;20895;-69
2021/08/03 15:53:07;;;;;;;2.00;1.23;;;22.00;99.90;;;;;;4923206;29;20801;-69
2021/08/03 15:55:33;;;;;;;1.60;1.60;;;21.90;99.90;;;;;;4925670;29;20489;-68
2021/08/03 15:58:04;;;;;;;1.10;1.10;;;21.90;99.90;;;;;;4921275;29;20522;-69
2021/08/03 16:00:32;;;;;;;1.63;1.53;;;21.80;99.90;;;;;;4917950;29;21023;-68
2021/08/03 16:02:59;;;;;;;1.47;1.37;;;21.80;99.90;;;;;;4920656;29;20470;-69
2021/08/03 16:05:26;;;;;;;1.13;1.13;;;21.70;99.90;;;;;;4917757;29;20474;-68
2021/08/03 16:07:53;;;;;;;1.07;1.07;;;21.70;99.90;;;;;;4928524;29;20466;-67
2021/08/03 16:10:19;;;;;;;1.10;0.93;;;21.70;99.90;;;;;;4928928;29;20481;-67
2021/08/03 16:12:46;;;;;;;1.37;1.33;;;21.50;99.90;;;;;;4916903;29;21002;-67
2021/08/03 16:15:13;;;;;;;0.93;0.93;;;21.50;99.90;;;;;;4915199;29;20967;-68
2021/08/03 16:17:46;;;;;;;1.40;1.40;;;21.40;99.90;;;;;;4929143;29;20525;-69
2021/08/03 16:20:13;;;;;;;1.33;1.33;;;21.40;99.90;;;;;;4916247;29;20537;-70
2021/08/03 16:22:40;;;;;;;1.50;1.40;;;21.30;99.90;;;;;;4928501;29;20466;-69
2021/08/03 16:25:08;;;;;;;1.70;1.50;;;21.30;99.90;;;;;;4920701;29;20571;-70
2021/08/03 16:27:34;;;;;;;1.90;1.80;;;21.30;99.90;;;;;;4938254;29;20469;-70
2021/08/03 16:30:01;;;;;;;1.30;1.30;;;21.20;99.90;;;;;;4919956;29;20502;-70
2021/08/03 16:32:33;;;;;;;1.73;1.53;;;21.10;99.90;;;;;;4919762;29;20490;-69
2021/08/03 16:35:05;;;;;;;1.50;1.40;;;21.00;99.90;;;;;;4936270;29;20478;-69
2021/08/03 16:37:33;;;;;;;1.30;1.20;;;21.00;99.90;;;;;;4937929;29;20524;-69
2021/08/03 16:40:00;;;;;;;1.70;1.50;;;20.90;99.90;;;;;;4934842;29;21105;-69
2021/08/03 16:42:27;;;;;;;1.10;1.10;;;20.90;99.90;;;;;;4918346;29;20979;-69
2021/08/03 16:44:55;;;;;;;1.33;1.33;;;20.90;99.90;;;;;;4921346;29;20549;-69
2021/08/03 16:47:22;;;;;;;1.47;1.37;;;20.80;99.90;;;;;;4928379;29;20462;-69
2021/08/03 16:49:48;;;;;;;1.10;1.00;;;20.80;99.90;;;;;;4930043;29;20493;-69
2021/08/03 16:52:16;;;;;;;1.43;1.37;;;20.70;99.90;;;;;;4920070;29;20501;-69
2021/08/03 16:54:43;;;;;;;1.57;1.47;;;20.70;99.90;;;;;;4918344;29;20514;-69
2021/08/03 16:57:10;;;;;;;1.20;1.20;;;20.70;99.90;;;;;;4918025;29;20470;-69
2021/08/03 16:59:37;;;;;;;1.50;1.50;;;20.70;99.90;;;;;;4917731;29;20513;-69